Time;durP1;ratioP1;P1;durP2;ratioP2;P2;SDS_P1;SDS_P2;PMS_P1;PMS_P2;Temp;Humidity;BMP_temperature;BMP_pressure;BME280_temperature;BME280_humidity;BME280_pressure;Samples;Min_cycle;Max_cycle;Signal;HPM_P1;HPM_P2
2023/01/30 00:00:56;;;;;;;16.83;11.50;;;2.40;99.90;;;;;;4772983;30;20592;-90
2023/01/30 00:03:22;;;;;;;16.90;11.00;;;2.40;99.90;;;;;;4771788;30;20681;-96
2023/01/30 00:05:57;;;;;;;17.47;10.57;;;2.40;99.90;;;;;;4772481;30;20194;-94
2023/01/30 00:08:23;;;;;;;17.63;11.40;;;2.40;99.90;;;;;;4771946;30;20191;-94
2023/01/30 00:10:48;;;;;;;17.93;11.13;;;2.40;99.90;;;;;;4773037;30;20194;-85
2023/01/30 00:13:15;;;;;;;18.77;11.27;;;2.50;99.90;;;;;;4757013;30;20192;-92
2023/01/30 00:15:41;;;;;;;20.10;11.33;;;2.50;99.90;;;;;;4755305;30;20269;-95
2023/01/30 00:18:07;;;;;;;19.33;11.93;;;2.60;99.90;;;;;;4755208;30;20173;-93
2023/01/30 00:20:33;;;;;;;18.47;11.47;;;2.60;99.90;;;;;;4754952;30;20230;-95
2023/01/30 00:22:59;;;;;;;20.07;12.50;;;2.70;99.90;;;;;;4754963;30;20267;-91
2023/01/30 00:25:30;;;;;;;19.83;11.60;;;2.60;99.90;;;;;;4754135;30;20193;-94
2023/01/30 00:27:58;;;;;;;19.73;12.03;;;2.70;99.90;;;;;;4768685;30;20195;-89
2023/01/30 00:30:24;;;;;;;20.20;12.13;;;2.70;99.90;;;;;;4753961;30;20321;-93
2023/01/30 00:32:57;;;;;;;21.73;11.73;;;2.70;99.90;;;;;;4754805;30;20677;-86
2023/01/30 00:35:27;;;;;;;21.03;11.93;;;2.70;99.90;;;;;;4768425;30;20520;-84
2023/01/30 00:37:57;;;;;;;19.90;11.60;;;2.70;99.90;;;;;;4754903;30;20169;-81
2023/01/30 00:40:24;;;;;;;19.37;11.30;;;2.70;99.90;;;;;;4754993;30;20212;-82
2023/01/30 00:48:22;;;;;;;17.53;10.67;;;2.80;99.90;;;;;;4772031;30;20171;-91
2023/01/30 00:50:48;;;;;;;21.07;12.60;;;2.80;99.90;;;;;;4771360;30;20239;-80
2023/01/30 00:53:15;;;;;;;20.57;12.07;;;2.90;99.90;;;;;;4771068;30;20184;-80
2023/01/30 00:55:42;;;;;;;19.40;11.30;;;2.90;99.90;;;;;;4771679;30;20188;-84
2023/01/30 00:58:08;;;;;;;19.80;11.47;;;2.80;99.90;;;;;;4771289;30;20210;-82
2023/01/30 01:00:34;;;;;;;20.13;11.97;;;2.90;99.90;;;;;;4770924;30;20558;-83
2023/01/30 01:03:00;;;;;;;21.70;11.87;;;3.00;99.90;;;;;;4769988;30;20184;-82
2023/01/30 01:05:28;;;;;;;19.73;11.87;;;3.00;99.90;;;;;;4771905;30;20291;-89
2023/01/30 01:07:54;;;;;;;19.37;11.87;;;3.00;99.90;;;;;;4771973;30;20200;-87
2023/01/30 01:10:21;;;;;;;22.60;12.53;;;2.90;99.90;;;;;;4770459;30;20192;-83
2023/01/30 01:12:48;;;;;;;23.63;11.80;;;2.90;99.90;;;;;;4771471;30;20192;-85
2023/01/30 01:15:14;;;;;;;21.57;11.43;;;2.80;99.90;;;;;;4771576;30;20224;-85
2023/01/30 01:17:41;;;;;;;21.37;12.53;;;2.80;99.90;;;;;;4771129;30;20234;-89
2023/01/30 01:20:09;;;;;;;20.87;12.63;;;2.80;99.90;;;;;;4771427;30;20281;-86
2023/01/30 01:22:34;;;;;;;21.97;12.53;;;2.80;99.90;;;;;;4771748;30;20184;-92
2023/01/30 01:25:01;;;;;;;23.30;12.53;;;2.80;99.90;;;;;;4771764;30;20192;-83
2023/01/30 01:27:28;;;;;;;20.63;12.27;;;2.80;99.90;;;;;;4771087;30;20176;-82
2023/01/30 01:29:54;;;;;;;21.77;12.50;;;2.80;99.90;;;;;;4769611;30;20296;-82
2023/01/30 01:32:21;;;;;;;21.20;12.60;;;2.80;99.90;;;;;;4770777;30;20325;-82
2023/01/30 01:34:46;;;;;;;24.80;13.73;;;2.80;99.90;;;;;;4769607;30;20188;-83
2023/01/30 01:37:12;;;;;;;21.43;12.23;;;2.80;99.90;;;;;;4770695;30;20194;-88
2023/01/30 01:42:33;;;;;;;24.03;13.50;;;2.80;99.90;;;;;;4770785;30;20284;-90
2023/01/30 01:45:21;;;;;;;25.30;14.20;;;2.80;99.90;;;;;;4770947;30;20219;-81
2023/01/30 01:48:13;;;;;;;25.97;13.87;;;2.80;99.90;;;;;;4770942;30;20168;-83
2023/01/30 01:51:10;;;;;;;24.87;13.90;;;2.90;99.90;;;;;;4770560;30;20326;-83
2023/01/30 01:53:49;;;;;;;22.40;13.17;;;2.90;99.90;;;;;;4759782;30;20640;-80
2023/01/30 01:56:17;;;;;;;29.17;14.80;;;2.90;99.90;;;;;;4770886;30;20320;-82
2023/01/30 01:59:00;;;;;;;25.33;15.10;;;2.90;99.90;;;;;;4770734;30;20168;-83
2023/01/30 02:01:27;;;;;;;28.03;14.40;;;2.80;99.90;;;;;;4769299;30;20264;-80
2023/01/30 02:03:58;;;;;;;26.23;14.70;;;2.90;99.90;;;;;;4770572;30;20621;-81
2023/01/30 02:06:24;;;;;;;21.90;13.47;;;2.90;99.90;;;;;;4770627;30;20215;-80
2023/01/30 02:08:54;;;;;;;25.73;15.27;;;2.90;99.90;;;;;;4770797;30;20269;-79
2023/01/30 02:11:45;;;;;;;26.80;14.60;;;2.90;99.90;;;;;;4770612;30;20184;-80
2023/01/30 02:14:11;;;;;;;25.83;14.30;;;2.90;99.90;;;;;;4770628;30;20576;-82
2023/01/30 02:16:38;;;;;;;24.80;13.87;;;2.90;99.90;;;;;;4770818;30;20276;-89
2023/01/30 02:19:29;;;;;;;26.60;14.37;;;2.90;99.90;;;;;;4770562;30;20688;-81
2023/01/30 02:22:03;;;;;;;26.33;14.93;;;3.00;99.90;;;;;;4770460;30;20172;-84
2023/01/30 02:24:52;;;;;;;25.60;13.33;;;2.90;99.90;;;;;;4770468;30;20188;-82
2023/01/30 02:27:38;;;;;;;28.07;15.33;;;3.00;99.90;;;;;;4770791;30;20176;-85
2023/01/30 02:30:16;;;;;;;26.63;15.27;;;3.00;99.90;;;;;;4773156;30;20188;-81
2023/01/30 02:32:54;;;;;;;28.20;14.20;;;3.00;99.90;;;;;;4773559;30;20207;-80
2023/01/30 02:35:39;;;;;;;26.03;14.40;;;3.10;99.90;;;;;;4773900;30;20196;-79
2023/01/30 02:38:29;;;;;;;25.30;14.53;;;3.10;99.90;;;;;;4773834;30;20181;-84
2023/01/30 02:41:37;;;;;;;26.40;13.93;;;3.10;99.90;;;;;;4773758;30;20281;-87
2023/01/30 02:44:22;;;;;;;23.93;13.70;;;3.20;99.90;;;;;;4762964;30;20207;-87
2023/01/30 02:47:00;;;;;;;23.73;13.63;;;3.20;99.90;;;;;;4773745;30;20256;-90
2023/01/30 02:49:38;;;;;;;24.03;13.30;;;3.20;99.90;;;;;;4773370;30;20263;-80
2023/01/30 02:52:06;;;;;;;21.13;13.03;;;3.30;99.90;;;;;;4773383;30;20176;-82
2023/01/30 02:54:32;;;;;;;24.90;13.83;;;3.30;99.90;;;;;;4773520;30;20184;-89
2023/01/30 02:56:59;;;;;;;23.40;13.43;;;3.30;99.90;;;;;;4773599;30;20365;-83
2023/01/30 02:59:39;;;;;;;23.13;13.07;;;3.30;99.90;;;;;;4773434;30;20208;-81
2023/01/30 03:02:21;;;;;;;21.83;12.70;;;3.30;99.90;;;;;;4773414;30;20187;-80
2023/01/30 03:05:24;;;;;;;22.37;13.03;;;3.30;99.90;;;;;;4773405;30;20232;-80
2023/01/30 03:08:21;;;;;;;21.87;12.67;;;3.40;99.90;;;;;;4773126;30;20208;-82
2023/01/30 03:10:54;;;;;;;21.33;12.50;;;3.40;99.90;;;;;;4770851;30;20207;-80
2023/01/30 03:13:32;;;;;;;21.17;12.17;;;3.40;99.90;;;;;;4772158;30;20195;-79
2023/01/30 03:16:21;;;;;;;21.93;13.23;;;3.40;99.90;;;;;;4773288;30;20188;-83
2023/01/30 03:18:48;;;;;;;20.37;12.87;;;3.50;99.90;;;;;;4773576;30;20279;-82
2023/01/30 03:21:14;;;;;;;21.10;12.43;;;3.50;99.90;;;;;;4773190;30;20223;-80
2023/01/30 03:23:39;;;;;;;22.27;13.00;;;3.60;99.90;;;;;;4773018;30;20582;-79
2023/01/30 03:26:10;;;;;;;20.30;12.20;;;3.50;99.90;;;;;;4773438;30;20188;-84
2023/01/30 03:28:36;;;;;;;24.93;13.50;;;3.60;99.90;;;;;;4772150;30;20218;-83
2023/01/30 03:31:02;;;;;;;23.37;13.13;;;3.60;99.90;;;;;;4773273;30;20216;-80
2023/01/30 03:33:27;;;;;;;23.40;13.47;;;3.60;99.90;;;;;;4772964;30;20651;-91
2023/01/30 03:35:53;;;;;;;23.47;13.53;;;3.60;99.90;;;;;;4773164;30;20188;-85
2023/01/30 03:38:20;;;;;;;23.63;13.90;;;3.60;99.90;;;;;;4772998;30;20219;-90
2023/01/30 03:40:46;;;;;;;23.80;14.40;;;3.60;99.90;;;;;;4772596;30;20212;-90
2023/01/30 03:43:11;;;;;;;22.93;13.77;;;3.60;99.90;;;;;;4771593;30;20255;-85
2023/01/30 03:45:37;;;;;;;26.63;14.77;;;3.70;99.90;;;;;;4773020;30;20192;-88
2023/01/30 03:48:03;;;;;;;22.93;13.77;;;3.70;99.90;;;;;;4772549;30;20500;-85
2023/01/30 03:50:28;;;;;;;23.67;13.87;;;3.80;99.90;;;;;;4772960;30;20744;-84
2023/01/30 03:52:54;;;;;;;25.77;14.90;;;3.80;99.90;;;;;;4772721;30;20250;-83
2023/01/30 03:55:21;;;;;;;27.20;15.20;;;3.70;99.90;;;;;;5196352;24;20280;-93
2023/01/30 03:57:46;;;;;;;25.27;14.17;;;3.70;99.90;;;;;;4789542;30;20182;-93
2023/01/30 04:00:13;;;;;;;31.37;15.13;;;3.80;99.90;;;;;;4788683;30;20211;-93
2023/01/30 04:02:38;;;;;;;27.77;14.83;;;3.80;99.90;;;;;;4789017;29;20222;-92
2023/01/30 04:05:05;;;;;;;29.37;15.60;;;3.80;99.90;;;;;;4788777;29;20254;-92
2023/01/30 04:07:30;;;;;;;25.97;15.47;;;3.80;99.90;;;;;;4788688;29;20586;-92
2023/01/30 04:09:56;;;;;;;29.47;14.33;;;3.70;99.90;;;;;;4788769;30;20287;-91
2023/01/30 04:12:22;;;;;;;29.10;15.77;;;3.70;99.90;;;;;;4788176;29;20351;-92
2023/01/30 04:14:48;;;;;;;24.87;14.77;;;3.80;99.90;;;;;;4788658;30;20191;-92
2023/01/30 04:17:13;;;;;;;31.50;16.63;;;3.80;99.90;;;;;;4788630;30;20203;-91
2023/01/30 04:19:39;;;;;;;27.73;16.10;;;3.80;99.90;;;;;;4788376;30;20272;-91
2023/01/30 04:22:05;;;;;;;31.30;17.20;;;3.80;99.90;;;;;;4788210;30;20180;-93
2023/01/30 04:24:31;;;;;;;27.90;15.40;;;3.70;99.90;;;;;;4788275;29;20242;-90
2023/01/30 04:26:56;;;;;;;27.33;15.37;;;3.80;99.90;;;;;;4788718;29;20197;-91
2023/01/30 04:29:22;;;;;;;32.83;17.30;;;3.80;99.90;;;;;;4788024;30;20179;-92
2023/01/30 04:31:48;;;;;;;27.00;15.87;;;3.80;99.90;;;;;;4788283;30;20201;-92
2023/01/30 04:34:13;;;;;;;29.17;15.47;;;3.80;99.90;;;;;;4788116;29;20211;-90
2023/01/30 04:36:40;;;;;;;30.40;16.83;;;3.80;99.90;;;;;;4788250;30;20194;-91
2023/01/30 04:39:06;;;;;;;31.03;16.73;;;3.80;99.90;;;;;;4788049;30;20631;-90
2023/01/30 04:41:32;;;;;;;35.23;17.10;;;3.90;99.90;;;;;;4787701;30;20237;-91
2023/01/30 04:43:57;;;;;;;27.83;16.13;;;3.80;99.90;;;;;;4787816;29;20203;-91
2023/01/30 04:46:23;;;;;;;29.07;16.67;;;3.80;99.90;;;;;;4788135;30;20175;-90
2023/01/30 04:48:49;;;;;;;27.47;15.87;;;3.80;99.90;;;;;;4788075;30;20203;-92
2023/01/30 04:51:14;;;;;;;27.27;15.23;;;3.80;99.90;;;;;;4788092;30;20172;-92
2023/01/30 04:53:40;;;;;;;27.07;16.17;;;3.80;99.90;;;;;;4787093;29;20214;-92
2023/01/30 04:56:07;;;;;;;27.80;14.93;;;3.80;99.90;;;;;;4788486;30;20231;-92
2023/01/30 04:58:32;;;;;;;24.63;14.13;;;3.90;99.90;;;;;;4787860;30;20182;-91
2023/01/30 05:01:19;;;;;;;29.83;15.23;;;3.80;99.90;;;;;;4787600;30;20203;-90
2023/01/30 05:03:57;;;;;;;25.90;13.27;;;3.90;99.90;;;;;;4769514;30;20200;-91
2023/01/30 05:06:23;;;;;;;25.30;14.07;;;3.90;99.90;;;;;;4770212;30;20233;-92
2023/01/30 05:08:53;;;;;;;26.50;14.33;;;3.90;99.90;;;;;;4769800;30;20168;-91
2023/01/30 05:11:21;;;;;;;25.57;14.83;;;3.90;99.90;;;;;;4769496;30;20180;-92
2023/01/30 05:13:47;;;;;;;27.57;14.03;;;3.90;99.90;;;;;;4769387;30;20207;-91
2023/01/30 05:16:14;;;;;;;27.50;14.60;;;3.90;99.90;;;;;;4769406;30;20234;-92
2023/01/30 05:18:40;;;;;;;23.83;14.10;;;3.90;99.90;;;;;;4769630;30;20191;-91
2023/01/30 05:21:17;;;;;;;24.73;13.90;;;3.90;99.90;;;;;;4769655;30;20204;-91
2023/01/30 05:23:43;;;;;;;24.87;14.13;;;4.00;99.90;;;;;;4769192;30;20235;-91
2023/01/30 05:26:10;;;;;;;22.93;13.57;;;4.00;99.90;;;;;;4769296;30;20279;-91
2023/01/30 05:28:35;;;;;;;26.13;14.73;;;4.00;99.90;;;;;;4770224;30;20164;-90
2023/01/30 05:31:06;;;;;;;22.83;13.27;;;4.00;99.90;;;;;;4769424;30;20176;-91
2023/01/30 05:33:32;;;;;;;25.00;14.40;;;4.10;99.90;;;;;;4769286;30;20204;-92
2023/01/30 05:36:00;;;;;;;22.17;13.50;;;4.10;99.90;;;;;;4769528;30;20199;-91
2023/01/30 05:38:27;;;;;;;22.93;12.83;;;4.10;99.90;;;;;;4769316;30;20176;-91
2023/01/30 05:41:05;;;;;;;20.30;13.03;;;4.10;99.90;;;;;;4796602;29;20618;-91
2023/01/30 05:43:31;;;;;;;23.30;13.07;;;4.10;99.90;;;;;;4805006;29;20203;-90
2023/01/30 05:45:59;;;;;;;25.13;12.47;;;4.10;99.90;;;;;;4805081;29;20182;-91
2023/01/30 05:48:27;;;;;;;20.57;12.80;;;4.10;99.90;;;;;;4805030;29;20167;-91
2023/01/30 05:50:55;;;;;;;19.53;12.50;;;4.20;99.90;;;;;;4804944;29;20204;-91
2023/01/30 05:53:25;;;;;;;22.23;12.00;;;4.20;99.90;;;;;;4805171;29;20214;-90
2023/01/30 05:55:59;;;;;;;21.30;12.73;;;4.20;99.90;;;;;;4792300;29;20231;-91
2023/01/30 05:58:26;;;;;;;18.63;11.97;;;4.20;99.90;;;;;;4787265;30;20191;-92
2023/01/30 06:00:52;;;;;;;18.13;11.20;;;4.20;99.90;;;;;;4787154;30;20222;-91
2023/01/30 06:03:18;;;;;;;20.80;11.27;;;4.20;99.90;;;;;;4787029;29;20207;-91
2023/01/30 06:05:44;;;;;;;18.17;10.90;;;4.30;99.90;;;;;;4789528;30;20286;-91
2023/01/30 06:08:10;;;;;;;16.47;10.60;;;4.30;99.90;;;;;;4789717;30;20705;-91
2023/01/30 06:10:36;;;;;;;19.00;10.17;;;4.40;99.90;;;;;;4791949;29;20180;-91
2023/01/30 06:13:03;;;;;;;17.83;10.80;;;4.40;99.90;;;;;;4790897;30;20262;-90
2023/01/30 06:15:29;;;;;;;15.37;10.17;;;4.40;99.90;;;;;;4790658;30;20183;-90
2023/01/30 06:17:54;;;;;;;17.20;9.93;;;4.50;99.90;;;;;;4790424;30;20194;-91
2023/01/30 06:20:20;;;;;;;16.80;9.87;;;4.50;99.90;;;;;;4790495;30;20238;-91
2023/01/30 06:22:47;;;;;;;14.63;9.43;;;4.50;99.90;;;;;;4790392;30;20261;-91
2023/01/30 06:25:13;;;;;;;12.87;9.30;;;4.60;99.90;;;;;;4790309;30;20844;-91
2023/01/30 06:27:39;;;;;;;14.67;8.87;;;4.60;99.90;;;;;;4790537;30;20275;-92
2023/01/30 06:30:05;;;;;;;13.07;8.87;;;4.70;99.90;;;;;;4790580;30;20270;-93
2023/01/30 06:32:31;;;;;;;11.87;8.00;;;4.60;99.90;;;;;;4790186;30;20187;-92
2023/01/30 06:34:56;;;;;;;11.73;7.77;;;4.60;99.90;;;;;;4790443;30;20240;-94
2023/01/30 06:37:22;;;;;;;11.07;6.87;;;4.70;99.90;;;;;;4790461;30;20526;-94
2023/01/30 06:39:50;;;;;;;11.93;7.77;;;4.70;99.90;;;;;;4790030;30;20234;-92
2023/01/30 06:42:16;;;;;;;9.93;6.90;;;4.80;99.90;;;;;;4790172;30;20179;-92
2023/01/30 06:44:41;;;;;;;10.77;6.70;;;4.80;99.90;;;;;;4791016;29;20213;-93
2023/01/30 06:47:07;;;;;;;11.50;6.87;;;4.90;99.90;;;;;;4791644;30;20211;-91
2023/01/30 06:49:33;;;;;;;9.97;6.47;;;5.00;99.90;;;;;;4789979;30;20199;-91
2023/01/30 06:51:59;;;;;;;10.40;6.27;;;5.10;99.90;;;;;;4790229;30;20188;-91
2023/01/30 06:54:27;;;;;;;10.00;5.60;;;5.00;99.90;;;;;;4789753;29;20214;-91
2023/01/30 06:56:53;;;;;;;10.27;5.23;;;5.00;99.90;;;;;;4789805;30;20856;-92
2023/01/30 06:59:18;;;;;;;12.00;5.33;;;5.10;99.90;;;;;;4789476;30;20282;-92
2023/01/30 07:01:44;;;;;;;10.40;5.30;;;5.10;99.90;;;;;;4789620;30;20244;-91
2023/01/30 07:04:10;;;;;;;6.47;4.53;;;5.20;99.90;;;;;;4789396;29;20317;-92
2023/01/30 07:06:35;;;;;;;8.87;5.07;;;5.30;99.90;;;;;;4789315;30;20194;-92
2023/01/30 07:09:01;;;;;;;10.33;4.73;;;5.40;99.90;;;;;;4789498;30;20179;-91
2023/01/30 07:11:27;;;;;;;9.20;4.37;;;5.40;99.90;;;;;;4789586;30;20183;-90
2023/01/30 07:13:53;;;;;;;11.67;4.80;;;5.30;99.90;;;;;;4789156;29;20293;-91
2023/01/30 07:16:18;;;;;;;11.90;4.50;;;5.30;99.90;;;;;;4788610;29;20282;-93
2023/01/30 07:18:44;;;;;;;8.03;4.27;;;5.40;99.90;;;;;;4789214;30;20191;-90
2023/01/30 07:21:10;;;;;;;8.97;3.87;;;5.40;99.90;;;;;;4789095;30;20276;-90
2023/01/30 07:23:36;;;;;;;12.63;3.73;;;5.50;99.90;;;;;;4789072;29;20721;-90
2023/01/30 07:26:05;;;;;;;9.97;3.70;;;5.50;99.90;;;;;;4789002;30;20222;-91
2023/01/30 07:28:31;;;;;;;13.20;3.67;;;5.40;99.90;;;;;;4788941;30;20296;-92
2023/01/30 07:31:00;;;;;;;6.73;3.33;;;5.50;99.90;;;;;;4789056;29;20270;-91
2023/01/30 07:33:26;;;;;;;8.90;3.00;;;5.60;99.90;;;;;;4788994;29;20258;-92
2023/01/30 07:35:52;;;;;;;11.17;3.27;;;5.50;99.90;;;;;;4788634;29;20190;-90
2023/01/30 07:38:17;;;;;;;6.57;2.73;;;5.50;99.90;;;;;;4788624;29;20176;-92
2023/01/30 07:40:43;;;;;;;13.83;3.60;;;5.60;99.90;;;;;;4789497;30;20215;-90
2023/01/30 07:43:11;;;;;;;9.63;3.13;;;5.60;99.90;;;;;;4788501;29;20215;-91
2023/01/30 07:45:39;;;;;;;7.73;2.33;;;5.70;99.90;;;;;;4788954;29;20175;-92
2023/01/30 07:48:07;;;;;;;6.93;2.83;;;5.70;99.90;;;;;;4788977;29;20175;-93
2023/01/30 07:50:33;;;;;;;10.53;2.87;;;5.70;99.90;;;;;;4789121;29;20189;-92
2023/01/30 07:53:01;;;;;;;8.60;2.50;;;5.60;99.90;;;;;;4789168;29;20298;-91
2023/01/30 07:55:26;;;;;;;14.30;3.67;;;5.50;99.90;;;;;;4788853;29;20235;-92
2023/01/30 07:57:53;;;;;;;9.97;3.03;;;5.50;99.90;;;;;;4789048;29;20191;-91
2023/01/30 08:00:19;;;;;;;11.63;2.90;;;5.50;99.90;;;;;;4788820;29;20207;-92
2023/01/30 08:02:44;;;;;;;9.07;3.03;;;5.50;99.90;;;;;;4788786;29;20211;-91
2023/01/30 08:05:10;;;;;;;9.97;2.57;;;5.60;99.90;;;;;;4789022;30;20328;-92
2023/01/30 08:07:37;;;;;;;14.00;3.33;;;5.50;99.90;;;;;;4789051;30;20265;-92
2023/01/30 08:10:03;;;;;;;18.90;3.87;;;5.60;99.90;;;;;;4788938;30;20606;-92
2023/01/30 08:12:29;;;;;;;19.23;4.40;;;5.60;99.90;;;;;;4789120;29;20272;-92
2023/01/30 08:14:54;;;;;;;9.10;3.23;;;5.60;99.90;;;;;;4789178;30;20283;-92
2023/01/30 08:17:20;;;;;;;13.87;3.13;;;5.70;99.90;;;;;;4788663;29;20190;-91
2023/01/30 08:19:46;;;;;;;11.10;2.53;;;5.80;99.90;;;;;;4788541;29;20215;-92
2023/01/30 08:22:13;;;;;;;12.00;2.80;;;5.80;99.90;;;;;;4788210;29;20214;-92
2023/01/30 08:24:39;;;;;;;12.13;2.53;;;5.80;99.90;;;;;;4787875;29;20203;-93
2023/01/30 08:27:05;;;;;;;12.00;2.40;;;5.80;99.90;;;;;;4787923;29;20268;-93
2023/01/30 08:29:31;;;;;;;10.63;2.53;;;5.70;99.90;;;;;;4788160;30;20187;-92
2023/01/30 08:31:59;;;;;;;19.47;3.07;;;5.70;99.90;;;;;;4788626;30;20188;-92
2023/01/30 08:34:26;;;;;;;12.33;2.10;;;5.70;99.90;;;;;;4788228;29;20214;-92
2023/01/30 08:36:52;;;;;;;14.07;2.50;;;5.70;99.90;;;;;;4788185;30;20179;-92
2023/01/30 08:39:18;;;;;;;16.67;3.20;;;5.70;99.90;;;;;;4788328;30;20661;-93
2023/01/30 08:41:44;;;;;;;11.13;2.60;;;5.70;99.90;;;;;;4788525;30;20188;-94
2023/01/30 08:44:11;;;;;;;19.17;2.80;;;5.70;99.90;;;;;;4773513;30;20231;-91
2023/01/30 08:46:38;;;;;;;11.07;2.70;;;5.80;99.90;;;;;;4788592;30;20648;-91
2023/01/30 08:49:04;;;;;;;15.67;2.00;;;5.80;99.90;;;;;;4788008;30;20183;-92
2023/01/30 08:51:30;;;;;;;15.63;2.50;;;5.80;99.90;;;;;;4787953;30;20650;-92
2023/01/30 08:53:56;;;;;;;13.00;2.23;;;5.80;99.90;;;;;;4787799;29;20252;-92
2023/01/30 08:56:22;;;;;;;11.67;2.83;;;5.80;99.90;;;;;;4787776;29;20235;-93
2023/01/30 08:58:48;;;;;;;10.17;2.40;;;5.90;99.90;;;;;;4787751;30;20183;-92
2023/01/30 09:01:14;;;;;;;8.97;1.90;;;5.70;99.90;;;;;;4787594;30;20226;-92
2023/01/30 09:03:40;;;;;;;14.23;1.93;;;5.70;99.90;;;;;;4787513;29;20210;-91
2023/01/30 09:06:06;;;;;;;15.07;2.20;;;5.80;99.90;;;;;;4787592;30;20171;-93
2023/01/30 09:08:32;;;;;;;10.30;2.57;;;5.70;99.90;;;;;;4787494;30;20183;-92
2023/01/30 09:11:03;;;;;;;10.43;2.33;;;5.80;99.90;;;;;;4787750;30;20329;-92
2023/01/30 09:13:30;;;;;;;10.03;1.77;;;5.90;99.90;;;;;;4787353;29;20210;-92
2023/01/30 09:15:57;;;;;;;16.23;2.20;;;6.00;99.90;;;;;;4787635;30;20623;-91
2023/01/30 09:18:23;;;;;;;15.00;2.37;;;6.00;99.90;;;;;;4787339;30;20184;-92
2023/01/30 09:20:49;;;;;;;17.40;2.30;;;5.90;99.90;;;;;;4787676;30;20231;-93
2023/01/30 09:23:15;;;;;;;13.40;1.83;;;5.90;99.90;;;;;;4787380;29;20678;-91
2023/01/30 09:25:43;;;;;;;19.73;3.27;;;5.90;99.90;;;;;;4787259;30;20172;-93
2023/01/30 09:28:09;;;;;;;15.17;2.93;;;6.00;99.90;;;;;;4787192;30;20655;-92
2023/01/30 09:30:35;;;;;;;13.73;2.87;;;6.10;99.90;;;;;;4787134;30;20191;-92
2023/01/30 09:33:01;;;;;;;14.87;2.60;;;6.20;99.90;;;;;;4787158;29;20203;-92
2023/01/30 09:35:26;;;;;;;14.17;2.07;;;6.20;99.90;;;;;;4787365;30;20180;-91
2023/01/30 09:37:53;;;;;;;10.40;2.30;;;6.30;99.90;;;;;;4787179;30;20186;-91
2023/01/30 09:40:26;;;;;;;10.00;1.90;;;6.30;99.90;;;;;;4786630;30;20203;-92
2023/01/30 09:43:16;;;;;;;10.37;2.77;;;6.30;99.90;;;;;;4786978;29;20241;-92
2023/01/30 09:46:16;;;;;;;19.13;3.13;;;6.20;99.90;;;;;;4787294;30;20172;-92
2023/01/30 09:49:04;;;;;;;12.43;2.77;;;6.20;99.90;;;;;;4787025;30;20178;-90
2023/01/30 09:51:43;;;;;;;17.23;2.30;;;6.20;99.90;;;;;;4787550;30;20262;-93
2023/01/30 09:54:34;;;;;;;20.23;2.77;;;6.20;99.90;;;;;;4786873;29;20766;-93
2023/01/30 09:57:06;;;;;;;17.77;2.33;;;6.30;99.90;;;;;;4787237;30;20239;-91
2023/01/30 09:59:45;;;;;;;14.10;2.00;;;6.30;99.90;;;;;;4786995;30;20194;-94
2023/01/30 10:02:30;;;;;;;12.27;2.70;;;6.40;99.90;;;;;;4786966;30;20171;-93
2023/01/30 10:04:57;;;;;;;16.03;2.20;;;6.40;99.90;;;;;;4787115;29;20176;-91
2023/01/30 10:07:55;;;;;;;18.37;2.83;;;6.40;99.90;;;;;;4787031;30;20171;-92
2023/01/30 10:10:37;;;;;;;16.13;2.57;;;6.40;99.90;;;;;;4787058;30;20592;-92
2023/01/30 10:13:18;;;;;;;14.10;2.47;;;6.40;99.90;;;;;;4786714;29;20238;-92
2023/01/30 10:16:00;;;;;;;16.87;3.20;;;6.40;99.90;;;;;;4786793;30;20654;-93
2023/01/30 10:18:47;;;;;;;14.23;2.03;;;6.40;99.90;;;;;;4787183;30;20230;-93
2023/01/30 10:21:19;;;;;;;14.23;2.63;;;6.50;99.90;;;;;;4786988;30;20612;-91
2023/01/30 10:24:22;;;;;;;11.83;1.70;;;6.40;99.90;;;;;;4787047;29;20720;-93
2023/01/30 10:26:48;;;;;;;12.20;2.63;;;6.50;99.90;;;;;;4786817;30;20254;-91
2023/01/30 10:29:22;;;;;;;18.27;2.90;;;6.50;99.90;;;;;;4786973;30;20267;-92
2023/01/30 10:32:11;;;;;;;16.20;2.63;;;6.50;99.90;;;;;;4787063;30;20205;-91
2023/01/30 10:34:46;;;;;;;12.33;2.40;;;6.50;99.90;;;;;;4777346;30;20694;-92
2023/01/30 10:37:31;;;;;;;16.37;2.60;;;6.50;99.90;;;;;;4787006;30;20658;-93
2023/01/30 10:40:25;;;;;;;15.93;2.50;;;6.40;99.90;;;;;;4787527;30;20294;-94
2023/01/30 10:43:16;;;;;;;22.30;3.07;;;6.40;99.90;;;;;;4787451;29;20214;-92
2023/01/30 10:45:55;;;;;;;12.90;2.83;;;6.70;99.90;;;;;;4787644;30;20176;-92
2023/01/30 10:48:39;;;;;;;10.97;2.17;;;6.70;99.90;;;;;;4786729;30;20179;-92
2023/01/30 10:51:32;;;;;;;9.40;1.80;;;6.80;99.90;;;;;;4789020;29;20183;-93
2023/01/30 10:54:13;;;;;;;12.87;2.43;;;6.90;99.90;;;;;;4790065;29;20602;-92
2023/01/30 10:56:56;;;;;;;17.17;2.47;;;6.80;99.90;;;;;;4789847;30;20632;-91
2023/01/30 10:59:42;;;;;;;12.40;2.33;;;6.80;99.90;;;;;;4790087;30;20183;-93
2023/01/30 11:02:29;;;;;;;16.53;2.10;;;6.70;99.90;;;;;;4790048;30;20191;-93
2023/01/30 11:05:18;;;;;;;8.40;2.17;;;6.80;99.90;;;;;;4789903;30;20190;-93
2023/01/30 11:07:46;;;;;;;16.80;2.50;;;6.80;99.90;;;;;;4789860;30;20655;-93
2023/01/30 11:10:22;;;;;;;17.17;2.33;;;6.80;99.90;;;;;;4790047;30;20183;-93
2023/01/30 11:12:57;;;;;;;10.07;2.50;;;6.70;99.90;;;;;;4789348;29;20708;-93
2023/01/30 11:15:24;;;;;;;9.93;2.00;;;6.40;99.90;;;;;;4789778;30;20546;-94
2023/01/30 11:18:01;;;;;;;12.30;2.50;;;6.40;99.90;;;;;;4789538;30;20253;-94
2023/01/30 11:20:27;;;;;;;16.40;2.80;;;6.30;99.90;;;;;;4789635;30;20211;-91
2023/01/30 11:23:04;;;;;;;18.43;2.43;;;6.20;99.90;;;;;;4789340;29;20429;-93
2023/01/30 11:25:30;;;;;;;15.60;2.43;;;6.10;99.90;;;;;;4789233;30;20171;-93
2023/01/30 11:28:02;;;;;;;10.97;2.27;;;6.10;99.90;;;;;;4789232;29;20209;-93
2023/01/30 11:30:33;;;;;;;11.87;2.00;;;6.00;99.90;;;;;;4788918;29;20179;-92
2023/01/30 11:33:14;;;;;;;14.60;3.27;;;5.80;99.90;;;;;;4788802;29;20214;-90
2023/01/30 11:36:02;;;;;;;10.20;2.27;;;5.80;99.90;;;;;;4787833;29;20183;-90
2023/01/30 11:38:32;;;;;;;10.97;2.00;;;5.50;99.90;;;;;;4788168;29;20187;-90
2023/01/30 11:41:20;;;;;;;9.00;1.73;;;5.40;99.90;;;;;;4788098;30;20215;-90
2023/01/30 11:43:47;;;;;;;11.70;2.30;;;5.30;99.90;;;;;;4788575;29;20218;-90
2023/01/30 11:46:17;;;;;;;15.20;2.40;;;5.30;99.90;;;;;;4788533;29;20179;-89
2023/01/30 11:48:54;;;;;;;10.63;2.37;;;5.40;99.90;;;;;;4789200;29;20200;-90
2023/01/30 11:51:23;;;;;;;18.07;2.67;;;5.60;99.90;;;;;;4788002;29;20183;-91
2023/01/30 11:53:59;;;;;;;13.43;2.23;;;5.80;99.90;;;;;;4788179;29;20218;-91
2023/01/30 11:56:34;;;;;;;11.80;2.10;;;5.90;99.90;;;;;;4788325;29;20262;-92
2023/01/30 11:59:24;;;;;;;8.30;1.90;;;5.90;99.90;;;;;;4788109;30;20235;-92
2023/01/30 12:01:50;;;;;;;11.77;1.80;;;5.80;99.90;;;;;;4787281;29;20299;-90
2023/01/30 12:04:17;;;;;;;9.80;1.73;;;5.60;99.90;;;;;;4788212;29;20214;-91
2023/01/30 12:06:43;;;;;;;3.67;1.23;;;5.40;99.90;;;;;;4788228;29;20545;-92
2023/01/30 12:09:33;;;;;;;7.87;1.90;;;5.40;99.90;;;;;;4788013;29;20172;-92
2023/01/30 12:11:59;;;;;;;6.67;1.60;;;5.30;99.90;;;;;;4788059;29;20168;-92
2023/01/30 12:14:41;;;;;;;13.33;2.00;;;5.30;99.90;;;;;;4788090;29;20210;-91
2023/01/30 12:17:18;;;;;;;14.27;1.93;;;5.20;99.90;;;;;;4787872;29;20258;-91
2023/01/30 12:19:58;;;;;;;10.27;1.83;;;5.30;99.90;;;;;;4787914;29;20178;-91
2023/01/30 12:23:18;;;;;;;11.57;1.80;;;5.30;99.90;;;;;;4788031;29;20187;-91
2023/01/30 12:26:01;;;;;;;14.73;2.23;;;5.20;99.90;;;;;;4748436;30;20200;-91
2023/01/30 12:28:43;;;;;;;8.67;1.63;;;5.20;99.90;;;;;;4764458;30;20231;-91
2023/01/30 12:31:22;;;;;;;9.10;1.70;;;5.10;99.90;;;;;;4769804;30;20188;-91
2023/01/30 12:33:48;;;;;;;10.33;1.70;;;5.10;99.90;;;;;;4769197;30;20269;-90
2023/01/30 12:36:35;;;;;;;8.00;1.67;;;5.00;99.90;;;;;;4768936;30;20306;-90
2023/01/30 12:39:19;;;;;;;10.70;2.10;;;5.00;99.90;;;;;;4769164;30;20195;-91
2023/01/30 12:41:54;;;;;;;8.00;1.97;;;4.90;99.90;;;;;;4770385;30;20204;-90
2023/01/30 12:44:48;;;;;;;11.83;1.53;;;4.90;99.90;;;;;;4769470;30;20207;-90
2023/01/30 12:47:37;;;;;;;8.90;2.23;;;4.80;99.90;;;;;;4769517;30;20209;-92
2023/01/30 12:50:23;;;;;;;12.07;2.00;;;4.70;99.90;;;;;;4769801;30;20284;-90
2023/01/30 12:53:16;;;;;;;13.00;1.73;;;4.70;99.90;;;;;;4770044;30;20854;-90
2023/01/30 12:55:54;;;;;;;9.70;1.87;;;4.70;99.90;;;;;;4769380;30;20242;-91
2023/01/30 12:58:41;;;;;;;10.40;1.93;;;4.70;99.90;;;;;;4786932;29;20176;-90
2023/01/30 13:01:23;;;;;;;10.77;2.30;;;4.80;99.90;;;;;;4785940;29;20698;-90
2023/01/30 13:04:01;;;;;;;11.80;1.80;;;4.80;99.90;;;;;;4785609;29;20642;-90
2023/01/30 13:06:48;;;;;;;13.10;1.93;;;4.90;99.90;;;;;;4785638;29;20183;-90
2023/01/30 13:09:38;;;;;;;16.97;1.90;;;5.00;99.90;;;;;;4787034;29;20183;-90
2023/01/30 13:12:15;;;;;;;8.33;1.77;;;5.10;99.90;;;;;;4786687;29;20183;-90
2023/01/30 13:14:51;;;;;;;11.67;2.30;;;5.20;99.90;;;;;;4785977;29;20222;-92